Time;durP1;ratioP1;P1;durP2;ratioP2;P2;SDS_P1;SDS_P2;PMS_P1;PMS_P2;Temp;Humidity;BMP_temperature;BMP_pressure;BME280_temperature;BME280_humidity;BME280_pressure;Samples;Min_cycle;Max_cycle;Signal;HPM_P1;HPM_P2
2021/03/02 00:00:30;;;;;;;11.55;4.00;;;26.10;62.50;;;;;;4089972;28;20084;-60
2021/03/02 00:02:33;;;;;;;10.40;3.60;;;26.10;61.90;;;;;;4108200;28;20049;-59
2021/03/02 00:04:36;;;;;;;8.65;3.65;;;26.10;61.70;;;;;;4108828;28;20041;-59
2021/03/02 00:06:39;;;;;;;10.05;3.80;;;26.10;61.80;;;;;;4096117;28;20088;-59
2021/03/02 00:08:41;;;;;;;9.93;3.60;;;26.00;61.70;;;;;;4091928;28;20042;-60
2021/03/02 00:10:44;;;;;;;9.77;3.38;;;26.00;61.50;;;;;;4097302;28;20346;-59
2021/03/02 00:12:46;;;;;;;9.45;3.60;;;26.00;61.40;;;;;;4093999;28;20050;-59
2021/03/02 00:14:48;;;;;;;8.63;3.10;;;26.00;61.40;;;;;;4094774;28;20050;-60
2021/03/02 00:17:28;;;;;;;10.98;4.20;;;26.00;61.30;;;;;;4091831;28;20030;-59
2021/03/02 00:19:41;;;;;;;8.80;3.53;;;26.00;61.30;;;;;;4089275;28;20038;-60
2021/03/02 00:21:49;;;;;;;9.75;3.60;;;26.00;61.20;;;;;;4094607;28;20050;-59
2021/03/02 00:23:58;;;;;;;7.50;3.47;;;26.00;61.20;;;;;;4093959;28;22885;-57
2021/03/02 00:26:03;;;;;;;9.30;3.72;;;26.00;61.20;;;;;;4107837;28;20443;-60
2021/03/02 00:28:07;;;;;;;8.38;3.42;;;26.00;61.20;;;;;;4092791;28;20062;-58
2021/03/02 00:30:09;;;;;;;7.93;3.28;;;26.00;61.20;;;;;;4092195;28;20056;-59
2021/03/02 00:32:16;;;;;;;10.23;3.75;;;25.90;60.90;;;;;;4088011;28;20034;-58
2021/03/02 00:34:18;;;;;;;12.63;4.50;;;26.00;61.10;;;;;;4095548;28;21022;-60
2021/03/02 00:36:20;;;;;;;7.68;3.22;;;26.00;61.00;;;;;;4073385;28;20465;-59
2021/03/02 00:38:23;;;;;;;9.25;3.63;;;26.00;60.40;;;;;;4078732;28;21180;-59
2021/03/02 00:40:25;;;;;;;8.60;3.35;;;26.00;60.20;;;;;;4095715;28;20050;-60
2021/03/02 00:42:27;;;;;;;10.87;4.47;;;26.10;60.40;;;;;;4096612;28;20140;-60
2021/03/02 00:44:29;;;;;;;8.32;3.67;;;26.10;60.20;;;;;;4092345;28;20050;-60
2021/03/02 00:46:31;;;;;;;9.32;3.65;;;26.10;60.70;;;;;;4096484;28;20061;-60
2021/03/02 00:48:33;;;;;;;7.97;3.53;;;26.10;59.90;;;;;;4092274;28;20129;-59
2021/03/02 00:50:36;;;;;;;7.50;2.90;;;26.10;59.50;;;;;;4097096;28;20571;-60
2021/03/02 00:52:38;;;;;;;10.70;3.83;;;26.10;59.70;;;;;;4095108;28;21008;-58
2021/03/02 00:54:40;;;;;;;10.45;2.78;;;26.20;59.60;;;;;;4094116;28;20792;-59
2021/03/02 00:56:42;;;;;;;6.97;3.40;;;26.10;59.90;;;;;;4092615;28;20054;-60
2021/03/02 00:58:44;;;;;;;6.15;3.58;;;26.20;59.80;;;;;;4106567;28;20120;-60
2021/03/02 01:00:46;;;;;;;12.32;3.83;;;26.20;59.50;;;;;;4092548;28;20056;-59
2021/03/02 01:02:48;;;;;;;10.57;3.45;;;26.20;59.00;;;;;;4092676;28;20134;-59
2021/03/02 01:04:50;;;;;;;8.13;3.00;;;26.20;59.30;;;;;;4091012;28;20583;-62
2021/03/02 01:06:52;;;;;;;7.10;3.47;;;26.20;58.90;;;;;;4094526;28;20151;-59
2021/03/02 01:08:55;;;;;;;10.25;3.72;;;26.20;59.00;;;;;;4092534;28;21036;-61
2021/03/02 01:10:57;;;;;;;8.00;3.00;;;26.20;59.30;;;;;;4089407;28;20039;-61
2021/03/02 01:12:59;;;;;;;7.40;3.00;;;26.20;58.90;;;;;;4079113;28;20749;-59
2021/03/02 01:15:03;;;;;;;7.50;2.80;;;26.20;59.10;;;;;;4092812;28;20042;-62
2021/03/02 01:17:05;;;;;;;7.00;3.28;;;26.30;59.20;;;;;;4090399;28;20039;-61
2021/03/02 01:19:07;;;;;;;7.90;2.83;;;26.20;58.20;;;;;;4094898;28;20046;-60
2021/03/02 01:21:11;;;;;;;9.98;3.10;;;26.30;58.90;;;;;;4088980;28;20038;-61
2021/03/02 01:23:13;;;;;;;10.55;3.53;;;26.30;58.80;;;;;;4088024;28;21399;-56
2021/03/02 01:25:16;;;;;;;10.70;3.33;;;26.30;58.20;;;;;;4086347;28;20455;-58
2021/03/02 01:27:18;;;;;;;7.97;3.45;;;26.30;58.20;;;;;;4088473;28;20108;-59
2021/03/02 01:29:20;;;;;;;8.90;3.55;;;26.30;58.00;;;;;;4104478;28;20140;-56
2021/03/02 01:31:22;;;;;;;8.45;3.08;;;26.30;57.40;;;;;;4092434;28;20038;-58
2021/03/02 01:33:24;;;;;;;13.05;3.35;;;26.30;56.40;;;;;;4093107;28;20049;-59
2021/03/02 01:35:26;;;;;;;8.90;3.20;;;26.30;56.10;;;;;;4091818;28;20046;-59
2021/03/02 01:37:28;;;;;;;10.85;3.67;;;26.20;56.00;;;;;;4095832;28;20046;-59
2021/03/02 01:39:31;;;;;;;10.57;3.45;;;26.20;56.00;;;;;;4080900;28;20126;-56
2021/03/02 01:41:33;;;;;;;13.83;3.20;;;26.20;55.80;;;;;;4085117;28;20049;-57
2021/03/02 01:43:36;;;;;;;9.75;2.90;;;26.20;55.40;;;;;;4094328;28;20105;-56
2021/03/02 01:45:37;;;;;;;;;;;26.20;55.20;;;;;;4084335;28;20475;-58
2021/03/02 01:47:42;;;;;;;8.38;3.40;;;26.20;55.40;;;;;;4081245;28;20069;-57
2021/03/02 01:49:44;;;;;;;12.73;3.47;;;26.20;55.20;;;;;;4083644;28;20688;-57
2021/03/02 01:51:47;;;;;;;8.80;3.13;;;26.20;54.90;;;;;;4081985;28;20038;-58
2021/03/02 01:53:49;;;;;;;9.10;3.13;;;26.20;55.50;;;;;;4087061;28;20035;-58
2021/03/02 01:55:51;;;;;;;8.55;2.90;;;26.20;55.10;;;;;;4094412;28;20924;-60
2021/03/02 01:57:53;;;;;;;11.27;3.10;;;26.10;55.10;;;;;;4098937;28;20157;-59
2021/03/02 01:59:55;;;;;;;8.50;2.90;;;26.20;55.10;;;;;;4096133;28;20127;-59
2021/03/02 02:02:00;;;;;;;10.88;3.00;;;26.20;54.80;;;;;;4095497;28;20773;-57
2021/03/02 02:04:35;;;;;;;6.50;2.90;;;26.10;54.70;;;;;;4093221;28;20026;-58
2021/03/02 02:07:07;;;;;;;7.70;2.95;;;26.20;54.80;;;;;;4097643;28;20043;-57
2021/03/02 02:09:30;;;;;;;11.40;3.63;;;26.10;55.00;;;;;;4096831;28;20081;-58
2021/03/02 02:12:01;;;;;;;8.95;3.25;;;26.10;54.40;;;;;;4095290;28;20042;-59
2021/03/02 02:14:31;;;;;;;8.55;2.88;;;26.20;54.80;;;;;;4095698;28;20046;-57
2021/03/02 02:16:36;;;;;;;10.65;3.45;;;26.20;54.50;;;;;;4088345;28;20130;-59
2021/03/02 02:18:41;;;;;;;5.68;2.58;;;26.20;54.30;;;;;;4097089;28;20076;-57
2021/03/02 02:21:07;;;;;;;7.82;3.22;;;26.20;54.80;;;;;;4095891;28;20059;-59
2021/03/02 02:23:18;;;;;;;7.65;2.97;;;26.20;53.60;;;;;;4097372;28;20077;-58
2021/03/02 02:25:39;;;;;;;6.53;2.85;;;26.10;53.10;;;;;;4098321;28;20454;-59
2021/03/02 02:27:43;;;;;;;5.45;2.78;;;26.20;53.80;;;;;;4091490;28;20046;-58
2021/03/02 02:29:46;;;;;;;9.93;3.40;;;26.20;53.70;;;;;;4096248;28;20045;-57
2021/03/02 02:31:49;;;;;;;10.43;3.35;;;26.20;53.80;;;;;;4091362;28;20157;-57
2021/03/02 02:33:52;;;;;;;8.82;3.08;;;26.20;53.60;;;;;;4093437;28;20865;-57
2021/03/02 02:35:55;;;;;;;8.10;2.92;;;26.10;53.50;;;;;;4094113;28;20080;-58
2021/03/02 02:37:58;;;;;;;8.50;3.13;;;26.20;53.50;;;;;;4094692;28;20436;-59
2021/03/02 02:40:01;;;;;;;7.93;2.80;;;26.20;53.60;;;;;;4098355;28;20038;-59
2021/03/02 02:42:05;;;;;;;7.35;2.63;;;26.20;52.90;;;;;;4093198;28;20053;-59
2021/03/02 02:44:08;;;;;;;10.15;3.10;;;26.10;52.80;;;;;;4097809;28;20048;-56
2021/03/02 02:46:10;;;;;;;;;;;26.20;52.80;;;;;;4097337;28;20046;-58
2021/03/02 02:48:12;;;;;;;10.02;3.25;;;26.20;53.50;;;;;;4094189;28;19922;-59
2021/03/02 02:50:15;;;;;;;7.88;3.17;;;26.20;53.20;;;;;;4093812;28;20132;-55
2021/03/02 02:52:19;;;;;;;8.05;2.80;;;26.20;53.20;;;;;;4097020;28;20593;-58
2021/03/02 02:54:23;;;;;;;8.50;3.25;;;26.20;52.90;;;;;;4094842;28;20073;-60
2021/03/02 02:56:25;;;;;;;7.05;2.90;;;26.20;52.50;;;;;;4092962;28;20062;-58
2021/03/02 02:58:57;;;;;;;8.63;3.17;;;26.20;52.30;;;;;;4097006;28;20492;-58
2021/03/02 03:01:04;;;;;;;5.85;2.70;;;26.10;53.00;;;;;;4087844;28;20552;-58
2021/03/02 03:03:13;;;;;;;8.73;2.53;;;26.20;52.40;;;;;;4091341;28;20744;-59
2021/03/02 03:05:22;;;;;;;5.95;2.80;;;26.10;51.40;;;;;;4094572;28;20728;-58
2021/03/02 03:07:29;;;;;;;7.38;3.00;;;26.10;51.80;;;;;;4096355;28;20062;-55
2021/03/02 03:09:32;;;;;;;8.27;2.83;;;26.10;52.20;;;;;;4090823;28;20385;-58
2021/03/02 03:11:43;;;;;;;5.57;2.53;;;26.10;52.20;;;;;;4092714;28;20047;-59
2021/03/02 03:13:47;;;;;;;4.93;2.38;;;26.10;51.20;;;;;;4092971;28;20035;-60
2021/03/02 03:15:53;;;;;;;7.68;2.70;;;26.10;51.80;;;;;;4093729;28;20025;-60
2021/03/02 03:17:58;;;;;;;9.68;3.35;;;26.10;52.10;;;;;;4091168;28;20687;-59
2021/03/02 03:20:04;;;;;;;7.72;2.83;;;26.20;52.10;;;;;;4093733;28;20046;-57
2021/03/02 03:22:07;;;;;;;7.85;2.63;;;26.20;52.30;;;;;;4109744;28;20499;-58
2021/03/02 03:24:11;;;;;;;7.05;3.10;;;26.20;52.30;;;;;;4095462;28;20610;-57
2021/03/02 03:26:15;;;;;;;5.13;2.33;;;26.20;52.30;;;;;;4091873;28;20051;-57
2021/03/02 03:28:19;;;;;;;10.95;2.72;;;26.20;51.70;;;;;;4096283;28;20026;-57
2021/03/02 03:30:22;;;;;;;5.07;2.67;;;26.20;51.90;;;;;;4094275;28;20038;-59
2021/03/02 03:32:25;;;;;;;;;;;26.30;52.10;;;;;;4094606;28;20070;-58
2021/03/02 03:34:27;;;;;;;8.80;2.83;;;26.30;51.90;;;;;;4092279;28;20004;-59
2021/03/02 03:36:35;;;;;;;9.87;3.27;;;26.20;52.30;;;;;;4091677;28;20049;-59
2021/03/02 03:38:37;;;;;;;7.82;3.47;;;26.30;51.70;;;;;;4092882;28;20339;-60
2021/03/02 03:40:39;;;;;;;7.97;2.97;;;26.30;50.70;;;;;;4095697;28;20309;-57
2021/03/02 03:42:41;;;;;;;9.60;2.85;;;26.30;51.70;;;;;;4109213;28;20064;-59
2021/03/02 03:44:43;;;;;;;6.65;2.95;;;26.30;51.60;;;;;;4091983;28;20121;-57
2021/03/02 03:46:45;;;;;;;7.95;2.80;;;26.30;51.40;;;;;;4094204;28;20108;-58
2021/03/02 03:48:48;;;;;;;10.07;2.78;;;26.30;51.50;;;;;;4098467;28;20026;-59
2021/03/02 03:50:50;;;;;;;7.72;2.80;;;26.30;51.00;;;;;;4103217;28;20151;-58
2021/03/02 03:52:57;;;;;;;8.27;3.00;;;26.30;51.20;;;;;;4103606;28;20079;-57
2021/03/02 03:55:01;;;;;;;9.57;3.15;;;26.30;50.70;;;;;;4101883;28;20268;-54
2021/03/02 03:57:03;;;;;;;7.68;2.63;;;26.40;50.50;;;;;;4101613;28;20058;-56
2021/03/02 03:59:06;;;;;;;8.80;2.75;;;26.40;50.40;;;;;;4103688;28;20126;-55
2021/03/02 04:01:09;;;;;;;9.55;2.80;;;26.40;50.40;;;;;;4096052;28;20094;-56
2021/03/02 04:03:11;;;;;;;;;;;26.40;50.30;;;;;;4095115;28;20047;-56
2021/03/02 04:05:14;;;;;;;7.82;2.40;;;26.40;51.20;;;;;;4094527;28;19961;-53
2021/03/02 04:07:18;;;;;;;7.65;3.25;;;26.40;50.10;;;;;;4096954;28;20423;-57
2021/03/02 04:09:20;;;;;;;7.00;3.25;;;26.40;50.80;;;;;;4093199;28;20635;-55
2021/03/02 04:11:22;;;;;;;7.05;2.92;;;26.40;50.80;;;;;;4095442;28;20070;-53
2021/03/02 04:13:27;;;;;;;6.00;2.85;;;26.40;50.80;;;;;;4093209;28;20427;-55
2021/03/02 04:15:29;;;;;;;7.63;2.60;;;26.40;50.00;;;;;;4081407;28;20109;-52
2021/03/02 04:17:31;;;;;;;6.72;2.85;;;26.40;49.90;;;;;;4083832;28;20053;-53
2021/03/02 04:19:36;;;;;;;8.25;2.50;;;26.50;50.20;;;;;;4092012;28;20570;-55
2021/03/02 04:21:38;;;;;;;9.05;2.65;;;26.50;49.60;;;;;;4087089;28;20034;-54
2021/03/02 04:23:40;;;;;;;9.23;2.92;;;26.50;49.60;;;;;;4090656;28;20287;-55
2021/03/02 04:25:45;;;;;;;8.63;3.10;;;26.50;49.60;;;;;;4094122;28;20124;-51
2021/03/02 04:27:48;;;;;;;10.13;2.42;;;26.50;49.60;;;;;;4091787;28;20050;-43
2021/03/02 04:29:50;;;;;;;9.25;2.50;;;26.50;51.00;;;;;;4092403;28;20053;-46
2021/03/02 04:31:52;;;;;;;12.77;2.67;;;26.50;51.20;;;;;;4088390;28;20034;-53
2021/03/02 04:33:54;;;;;;;7.07;2.40;;;26.60;52.80;;;;;;4089362;28;20399;-53
2021/03/02 04:35:56;;;;;;;5.70;2.20;;;26.60;53.10;;;;;;4086681;28;20038;-52
2021/03/02 04:37:58;;;;;;;6.35;2.20;;;26.70;53.60;;;;;;4082695;28;20034;-51
2021/03/02 04:40:00;;;;;;;9.20;2.22;;;26.80;54.00;;;;;;4087599;28;20034;-51
2021/03/02 04:42:02;;;;;;;4.78;1.90;;;26.80;54.90;;;;;;4093159;28;20665;-53
2021/03/02 04:44:04;;;;;;;8.02;2.03;;;26.90;54.50;;;;;;4088317;28;20042;-49
2021/03/02 04:46:06;;;;;;;5.13;2.40;;;26.90;54.60;;;;;;4108161;28;20231;-54
2021/03/02 04:48:09;;;;;;;5.90;2.00;;;27.00;54.90;;;;;;4090703;28;20069;-54
2021/03/02 04:50:12;;;;;;;4.70;1.77;;;27.10;55.00;;;;;;4092725;28;20408;-54
2021/03/02 04:52:16;;;;;;;5.95;1.98;;;27.10;55.20;;;;;;4095904;28;20040;-51
2021/03/02 04:54:18;;;;;;;3.78;1.95;;;27.20;55.40;;;;;;4093373;28;20519;-54
2021/03/02 04:56:20;;;;;;;5.15;1.90;;;27.20;55.20;;;;;;4093655;28;20041;-54
2021/03/02 04:58:22;;;;;;;8.15;2.17;;;27.20;55.40;;;;;;4094288;28;20420;-52
2021/03/02 05:00:24;;;;;;;5.72;1.85;;;27.30;55.50;;;;;;4094470;28;20038;-49
2021/03/02 05:02:26;;;;;;;6.40;1.90;;;27.30;55.60;;;;;;4085645;28;20126;-49
2021/03/02 05:04:28;;;;;;;6.50;2.03;;;27.40;55.70;;;;;;4082259;28;20160;-54
2021/03/02 05:06:31;;;;;;;8.98;2.53;;;27.40;55.30;;;;;;4089387;28;20046;-51
2021/03/02 05:08:33;;;;;;;7.18;2.70;;;27.40;54.30;;;;;;4092998;28;20042;-52
2021/03/02 05:10:36;;;;;;;5.70;2.30;;;27.40;53.00;;;;;;4093132;28;20042;-54
2021/03/02 05:12:38;;;;;;;6.95;2.40;;;27.40;52.70;;;;;;4082023;28;20493;-46
2021/03/02 05:14:40;;;;;;;8.00;2.70;;;27.40;52.10;;;;;;4066433;28;20480;-51
2021/03/02 05:16:42;;;;;;;8.25;3.00;;;27.40;54.00;;;;;;4085999;28;20802;-49
2021/03/02 05:18:44;;;;;;;7.60;2.50;;;27.40;54.80;;;;;;4082908;28;20532;-51
2021/03/02 05:20:46;;;;;;;6.32;2.65;;;27.50;55.60;;;;;;4083514;28;20144;-56
2021/03/02 05:22:49;;;;;;;11.77;2.47;;;27.50;56.00;;;;;;4083162;28;20046;-53
2021/03/02 05:24:51;;;;;;;6.40;2.60;;;27.50;56.50;;;;;;4091701;28;20354;-51
2021/03/02 05:26:53;;;;;;;6.95;2.35;;;27.50;56.70;;;;;;4086785;28;20042;-52
2021/03/02 05:28:57;;;;;;;4.32;2.13;;;27.60;56.80;;;;;;4085873;28;20124;-55
2021/03/02 05:30:59;;;;;;;8.23;2.55;;;27.60;56.80;;;;;;4086004;28;20030;-53
2021/03/02 05:33:01;;;;;;;7.38;2.80;;;27.60;56.90;;;;;;4083542;28;20042;-48
2021/03/02 05:35:04;;;;;;;6.10;2.22;;;27.70;57.90;;;;;;4083572;28;20030;-51
2021/03/02 05:37:06;;;;;;;5.93;2.78;;;27.80;58.20;;;;;;4083882;28;20164;-48
2021/03/02 05:39:08;;;;;;;5.90;2.45;;;27.80;57.80;;;;;;4086881;28;20042;-54
2021/03/02 05:41:12;;;;;;;5.80;2.90;;;27.90;57.60;;;;;;4084624;28;20117;-54
2021/03/02 05:43:17;;;;;;;8.23;3.15;;;28.00;57.10;;;;;;4085475;28;20586;-55
2021/03/02 05:45:19;;;;;;;19.75;2.90;;;28.00;56.90;;;;;;4083666;28;20039;-49
2021/03/02 05:47:22;;;;;;;9.15;3.03;;;28.00;56.10;;;;;;4084402;28;20039;-49
2021/03/02 05:49:24;;;;;;;7.65;2.72;;;28.00;56.50;;;;;;4085924;28;20030;-52
2021/03/02 05:51:26;;;;;;;6.80;2.80;;;28.10;56.80;;;;;;4084224;28;20093;-49
2021/03/02 05:53:29;;;;;;;5.65;2.10;;;28.10;56.40;;;;;;4081232;28;20281;-52
2021/03/02 05:55:35;;;;;;;5.45;2.30;;;28.10;56.30;;;;;;4084647;28;20464;-54
2021/03/02 05:57:41;;;;;;;4.20;2.10;;;28.20;56.30;;;;;;4081909;28;20061;-48
2021/03/02 05:59:43;;;;;;;4.68;2.00;;;28.20;56.10;;;;;;4081640;28;20541;-51
2021/03/02 06:01:45;;;;;;;6.90;2.05;;;28.20;56.10;;;;;;4079937;28;20662;-53
2021/03/02 06:03:48;;;;;;;6.97;2.15;;;28.20;55.90;;;;;;4084785;28;20797;-50
2021/03/02 06:05:54;;;;;;;8.45;2.22;;;28.20;55.90;;;;;;4083911;28;20052;-49
2021/03/02 06:07:56;;;;;;;4.32;1.90;;;28.30;55.90;;;;;;4081667;28;21570;-52
2021/03/02 06:09:58;;;;;;;4.53;1.50;;;28.20;55.80;;;;;;4067588;28;20100;-47
2021/03/02 06:12:05;;;;;;;5.28;1.63;;;28.30;55.70;;;;;;4086077;28;20365;-49
2021/03/02 06:14:23;;;;;;;5.63;1.80;;;28.30;55.70;;;;;;4092132;28;20050;-45
2021/03/02 06:16:44;;;;;;;4.97;1.60;;;28.40;55.70;;;;;;4094001;28;20132;-50
2021/03/02 06:18:53;;;;;;;5.10;1.75;;;28.40;55.50;;;;;;4093125;28;20046;-48
2021/03/02 06:21:14;;;;;;;5.43;1.90;;;28.40;55.30;;;;;;4094500;28;20100;-44
2021/03/02 06:23:34;;;;;;;3.88;1.58;;;28.50;55.40;;;;;;4094588;28;20369;-50
2021/03/02 06:25:37;;;;;;;7.25;2.00;;;28.50;55.40;;;;;;4094885;28;20026;-53
2021/03/02 06:27:46;;;;;;;4.13;1.92;;;28.50;55.20;;;;;;4094020;28;20054;-49
2021/03/02 06:30:12;;;;;;;5.35;1.92;;;28.60;55.20;;;;;;4093285;28;20104;-53
2021/03/02 06:32:14;;;;;;;5.57;1.75;;;28.60;55.10;;;;;;4093204;28;20374;-50
2021/03/02 06:34:19;;;;;;;7.57;2.00;;;28.60;55.00;;;;;;4096970;28;20039;-46
2021/03/02 06:36:21;;;;;;;6.63;2.15;;;28.70;55.00;;;;;;4091430;28;20057;-52
2021/03/02 06:38:32;;;;;;;5.10;1.83;;;28.70;54.90;;;;;;4085832;28;20046;-50
2021/03/02 06:40:44;;;;;;;6.03;1.90;;;28.70;54.90;;;;;;4089174;28;20034;-51
2021/03/02 06:42:46;;;;;;;6.25;2.70;;;28.70;54.70;;;;;;4095012;28;20097;-50
2021/03/02 06:45:09;;;;;;;4.03;1.60;;;28.80;54.80;;;;;;4090637;28;20046;-47
2021/03/02 06:47:37;;;;;;;4.88;1.80;;;28.80;54.80;;;;;;4090317;28;20362;-49
2021/03/02 06:49:42;;;;;;;5.50;1.63;;;28.80;54.60;;;;;;4095249;28;20038;-47
2021/03/02 06:51:44;;;;;;;3.70;1.85;;;28.80;54.50;;;;;;4093971;28;20050;-46
2021/03/02 06:54:03;;;;;;;8.13;2.10;;;28.80;54.30;;;;;;4090691;28;20038;-50
2021/03/02 06:56:14;;;;;;;7.07;1.90;;;28.80;54.20;;;;;;4091482;28;20146;-50
2021/03/02 06:58:21;;;;;;;7.55;2.20;;;28.80;54.00;;;;;;4096982;28;20064;-51
2021/03/02 07:00:33;;;;;;;6.70;2.10;;;28.80;54.00;;;;;;4092367;28;20431;-46
2021/03/02 07:02:42;;;;;;;5.82;2.10;;;28.80;53.80;;;;;;4094777;28;20575;-45
2021/03/02 07:04:44;;;;;;;3.53;1.90;;;28.80;54.50;;;;;;4093469;28;20085;-48
2021/03/02 07:06:58;;;;;;;3.92;1.80;;;28.80;53.60;;;;;;4094104;28;20566;-51
2021/03/02 07:09:00;;;;;;;5.85;2.17;;;28.80;53.70;;;;;;4095278;28;20053;-50
2021/03/02 07:11:03;;;;;;;7.15;2.25;;;28.80;53.80;;;;;;4091852;28;21192;-52
2021/03/02 07:13:06;;;;;;;9.63;2.78;;;28.80;54.00;;;;;;4093968;28;20041;-47
2021/03/02 07:15:09;;;;;;;;;;;28.80;54.20;;;;;;4087937;28;20831;-47
2021/03/02 07:17:15;;;;;;;8.07;2.28;;;28.80;54.20;;;;;;4088856;28;20894;-47
2021/03/02 07:19:20;;;;;;;6.85;1.95;;;28.80;54.30;;;;;;4105680;28;20045;-48
2021/03/02 07:21:23;;;;;;;6.65;1.83;;;28.70;54.20;;;;;;4089229;28;21076;-51
2021/03/02 07:23:27;;;;;;;7.75;2.72;;;28.70;54.30;;;;;;4092066;28;20170;-49
2021/03/02 07:25:29;;;;;;;5.38;1.92;;;28.70;54.20;;;;;;4090561;28;20097;-46
2021/03/02 07:27:33;;;;;;;4.63;1.73;;;28.70;54.30;;;;;;4088462;28;20851;-50
2021/03/02 07:29:38;;;;;;;9.55;2.40;;;28.70;54.40;;;;;;4089103;28;20786;-50
2021/03/02 07:31:41;;;;;;;6.65;2.03;;;28.70;54.50;;;;;;4087943;28;20038;-50
2021/03/02 07:33:46;;;;;;;10.05;2.70;;;28.60;54.40;;;;;;4092469;28;20660;-46
2021/03/02 07:35:49;;;;;;;4.63;1.80;;;28.60;52.60;;;;;;4090587;28;20039;-48
2021/03/02 07:37:51;;;;;;;6.88;1.60;;;28.40;50.80;;;;;;4097254;28;20388;-50
2021/03/02 07:40:05;;;;;;;5.03;1.92;;;28.30;49.20;;;;;;4095588;28;20683;-54
2021/03/02 07:42:22;;;;;;;4.35;1.88;;;28.00;48.00;;;;;;4088171;28;20144;-51
2021/03/02 07:44:25;;;;;;;3.28;1.75;;;27.80;48.20;;;;;;4086388;28;20046;-54
2021/03/02 07:46:30;;;;;;;3.92;2.00;;;27.60;47.20;;;;;;4077244;28;20613;-56
2021/03/02 07:48:36;;;;;;;4.18;2.08;;;27.40;47.00;;;;;;4075720;28;20062;-57
2021/03/02 07:50:38;;;;;;;4.53;2.05;;;27.20;46.40;;;;;;4081982;28;20037;-55
2021/03/02 07:52:40;;;;;;;3.17;1.90;;;27.00;46.40;;;;;;4093957;28;20058;-59
2021/03/02 07:54:44;;;;;;;3.88;1.75;;;26.80;46.10;;;;;;4094214;28;20049;-56
2021/03/02 07:56:46;;;;;;;2.90;1.40;;;26.70;45.40;;;;;;4093538;28;20255;-53
2021/03/02 07:59:09;;;;;;;3.15;1.83;;;26.50;44.60;;;;;;4094312;28;20043;-52
2021/03/02 08:01:22;;;;;;;3.03;1.23;;;26.30;45.50;;;;;;4097446;28;20464;-55
2021/03/02 08:03:30;;;;;;;3.67;1.55;;;26.20;46.20;;;;;;4098258;28;20406;-57
2021/03/02 08:05:32;;;;;;;4.07;1.48;;;26.10;47.20;;;;;;4091538;28;20126;-54
2021/03/02 08:07:34;;;;;;;5.82;1.83;;;26.10;48.00;;;;;;4095679;28;20038;-55
2021/03/02 08:09:37;;;;;;;10.05;2.53;;;26.20;48.50;;;;;;4090964;28;20045;-59
2021/03/02 08:11:40;;;;;;;5.57;1.92;;;26.20;49.00;;;;;;4088227;28;20047;-53
2021/03/02 08:13:45;;;;;;;6.53;1.75;;;26.20;49.10;;;;;;4093405;28;20040;-58
2021/03/02 08:15:47;;;;;;;5.20;1.77;;;26.20;49.40;;;;;;4105189;28;20082;-50
2021/03/02 08:17:49;;;;;;;6.28;1.70;;;26.30;49.60;;;;;;4092348;28;20046;-54
2021/03/02 08:20:16;;;;;;;4.93;1.60;;;26.30;49.70;;;;;;4090871;28;20386;-55
2021/03/02 08:22:23;;;;;;;5.28;1.90;;;26.30;49.70;;;;;;4091390;28;20122;-53
2021/03/02 08:24:50;;;;;;;3.95;1.85;;;26.30;48.90;;;;;;4085754;28;20149;-50
2021/03/02 08:26:52;;;;;;;3.78;1.85;;;26.30;48.00;;;;;;4092518;28;20061;-49
2021/03/02 08:29:04;;;;;;;3.00;1.52;;;26.10;45.50;;;;;;4091124;28;20346;-55
2021/03/02 08:31:12;;;;;;;4.07;1.85;;;26.00;45.50;;;;;;4092566;28;20049;-57
2021/03/02 08:33:19;;;;;;;3.58;1.70;;;25.90;46.50;;;;;;4089545;28;20151;-59
2021/03/02 08:35:27;;;;;;;2.90;1.60;;;25.80;47.20;;;;;;4088732;28;20046;-58
2021/03/02 08:37:55;;;;;;;2.88;1.55;;;25.90;48.00;;;;;;4088599;28;20034;-59
2021/03/02 08:39:57;;;;;;;3.78;1.70;;;25.90;48.30;;;;;;4089440;28;20100;-57
2021/03/02 08:42:05;;;;;;;4.20;2.03;;;25.90;48.80;;;;;;4089405;28;20958;-59
2021/03/02 08:44:15;;;;;;;3.92;1.67;;;25.90;49.00;;;;;;4087181;28;20457;-58
2021/03/02 08:46:24;;;;;;;3.08;1.65;;;26.00;49.30;;;;;;4088374;28;20033;-58
2021/03/02 08:48:31;;;;;;;5.43;2.70;;;26.00;49.60;;;;;;4085579;28;20185;-58
2021/03/02 08:50:36;;;;;;;8.35;3.22;;;26.00;50.10;;;;;;4086682;28;20047;-54
2021/03/02 08:52:42;;;;;;;8.23;2.60;;;26.10;50.30;;;;;;4090187;28;20058;-57
2021/03/02 08:54:51;;;;;;;7.50;3.05;;;26.10;50.80;;;;;;4091303;28;20047;-55
2021/03/02 08:57:06;;;;;;;5.88;2.72;;;26.10;51.10;;;;;;4088699;28;20038;-57
2021/03/02 08:59:11;;;;;;;4.55;2.25;;;26.20;51.20;;;;;;4089620;28;21062;-52
2021/03/02 09:01:25;;;;;;;4.35;2.30;;;26.20;51.40;;;;;;4090079;28;20377;-56
2021/03/02 09:03:27;;;;;;;3.72;2.28;;;26.20;52.30;;;;;;4090264;28;20060;-57
2021/03/02 09:05:29;;;;;;;10.73;2.97;;;26.20;51.50;;;;;;4087867;28;20050;-59
2021/03/02 09:07:31;;;;;;;5.82;2.10;;;26.20;51.60;;;;;;4091096;28;20447;-58
2021/03/02 09:09:33;;;;;;;7.47;2.33;;;26.30;51.70;;;;;;4090649;28;20169;-56
2021/03/02 09:11:38;;;;;;;5.85;2.67;;;26.20;51.90;;;;;;4092629;28;20089;-56
2021/03/02 09:13:42;;;;;;;5.82;2.45;;;26.20;52.00;;;;;;4090592;28;20836;-56
2021/03/02 09:15:44;;;;;;;9.45;2.78;;;26.20;52.10;;;;;;4097415;28;20080;-60
2021/03/02 09:17:46;;;;;;;8.40;2.05;;;26.30;52.30;;;;;;4096147;28;20043;-58
2021/03/02 09:19:49;;;;;;;2.55;2.00;;;26.30;52.40;;;;;;4098357;28;20034;-54
2021/03/02 09:21:54;;;;;;;6.07;2.03;;;26.30;52.40;;;;;;4099439;28;20033;-57
2021/03/02 09:23:57;;;;;;;5.05;2.08;;;26.30;52.40;;;;;;4098817;28;20055;-55
2021/03/02 09:25:58;;;;;;;;;;;26.30;52.50;;;;;;4094556;28;20949;-54
2021/03/02 09:28:01;;;;;;;6.00;2.70;;;26.30;51.70;;;;;;4089877;28;19914;-57
2021/03/02 09:30:07;;;;;;;7.45;2.60;;;26.30;50.80;;;;;;4091477;28;20034;-57
2021/03/02 09:32:10;;;;;;;7.72;2.63;;;26.30;50.60;;;;;;4092982;28;20273;-59
2021/03/02 09:34:14;;;;;;;8.23;2.72;;;26.20;50.30;;;;;;4093967;28;20474;-58
2021/03/02 09:36:17;;;;;;;4.28;2.67;;;26.20;50.50;;;;;;4090567;28;20043;-59
2021/03/02 09:38:29;;;;;;;5.68;2.70;;;26.20;50.50;;;;;;4089994;28;20057;-58
2021/03/02 09:40:41;;;;;;;3.42;2.20;;;26.20;50.50;;;;;;4095430;28;20039;-58
2021/03/02 09:42:54;;;;;;;5.25;2.45;;;26.20;50.60;;;;;;4077953;28;20118;-59
2021/03/02 09:44:58;;;;;;;6.60;2.67;;;26.20;50.50;;;;;;4088132;28;20064;-54
2021/03/02 09:47:05;;;;;;;4.30;2.45;;;26.10;50.40;;;;;;4094623;28;20458;-52
2021/03/02 09:49:07;;;;;;;8.00;2.90;;;26.10;50.40;;;;;;4097344;28;20278;-52
2021/03/02 09:51:36;;;;;;;7.03;2.10;;;26.10;50.40;;;;;;4091808;28;20129;-58
2021/03/02 09:53:38;;;;;;;8.02;2.50;;;26.10;50.50;;;;;;4092610;28;20141;-54
2021/03/02 09:55:42;;;;;;;5.15;2.60;;;26.10;50.60;;;;;;4095862;28;20649;-57
2021/03/02 09:57:54;;;;;;;6.50;2.53;;;26.10;50.70;;;;;;4095186;28;20041;-58
2021/03/02 09:59:57;;;;;;;4.75;2.30;;;26.10;50.70;;;;;;4109797;28;20046;-57
2021/03/02 10:02:02;;;;;;;4.20;2.22;;;26.10;50.60;;;;;;4092468;28;21057;-53
2021/03/02 10:04:08;;;;;;;6.43;2.40;;;26.10;50.50;;;;;;4094605;28;20400;-54
2021/03/02 10:06:10;;;;;;;7.95;2.65;;;26.00;50.60;;;;;;4093979;28;20135;-56
2021/03/02 10:08:28;;;;;;;4.43;2.08;;;26.00;50.60;;;;;;4095687;28;20388;-55
2021/03/02 10:10:40;;;;;;;6.75;3.00;;;26.00;50.50;;;;;;4096762;28;20368;-51
2021/03/02 10:12:59;;;;;;;7.95;2.40;;;26.00;51.40;;;;;;4094950;28;20103;-52
2021/03/02 10:15:01;;;;;;;3.70;2.25;;;26.00;50.50;;;;;;4094334;28;21264;-56
2021/03/02 10:17:03;;;;;;;6.05;2.60;;;26.00;50.80;;;;;;4095271;28;20068;-54
2021/03/02 10:19:22;;;;;;;5.63;2.50;;;26.00;50.80;;;;;;4097527;28;20646;-55
2021/03/02 10:21:27;;;;;;;5.13;2.63;;;26.00;50.80;;;;;;4093311;28;20128;-54
2021/03/02 10:23:30;;;;;;;6.05;2.20;;;26.00;50.90;;;;;;4093490;28;20145;-54
2021/03/02 10:25:41;;;;;;;4.00;2.10;;;26.10;50.90;;;;;;4098801;28;20819;-55
2021/03/02 10:27:56;;;;;;;6.10;2.33;;;26.10;50.80;;;;;;4093075;28;20458;-56
2021/03/02 10:29:59;;;;;;;5.05;2.10;;;26.10;50.80;;;;;;4096378;28;20146;-52
2021/03/02 10:32:03;;;;;;;4.07;2.40;;;26.10;50.30;;;;;;4094942;28;20089;-49
2021/03/02 10:34:05;;;;;;;;;;;26.10;50.80;;;;;;4097100;28;20034;-55
2021/03/02 10:36:27;;;;;;;4.18;2.40;;;26.00;50.80;;;;;;4088130;28;19921;-53
2021/03/02 10:38:30;;;;;;;3.20;2.08;;;26.10;50.80;;;;;;4098532;28;20357;-53
2021/03/02 10:40:32;;;;;;;4.75;2.63;;;26.10;50.80;;;;;;4097911;28;20053;-55
2021/03/02 10:42:35;;;;;;;4.15;2.55;;;26.00;50.70;;;;;;4097954;28;20046;-51
2021/03/02 10:44:38;;;;;;;3.70;2.33;;;26.00;50.90;;;;;;4096389;28;20046;-49
2021/03/02 10:46:41;;;;;;;3.28;2.10;;;26.00;50.70;;;;;;4096707;28;20031;-55
2021/03/02 10:48:45;;;;;;;4.15;1.90;;;26.00;50.70;;;;;;4094915;28;20038;-56
2021/03/02 10:50:48;;;;;;;8.23;3.00;;;26.00;50.60;;;;;;4094511;28;20070;-51
2021/03/02 10:52:50;;;;;;;4.78;2.38;;;26.00;50.80;;;;;;4095027;28;20534;-54
2021/03/02 10:54:52;;;;;;;3.88;2.15;;;26.00;50.90;;;;;;4097949;28;20625;-55